sensor_id;sensor_type;location;lat;lon;timestamp;P1;durP1;ratioP1;P2;durP2;ratioP2
24279;SDS011;12395;42.808;23.408;2022-12-18T00:01:28;13.90;;;8.43;;
24279;SDS011;12395;42.808;23.408;2022-12-18T00:03:56;15.43;;;8.55;;
24279;SDS011;12395;42.808;23.408;2022-12-18T00:06:23;13.02;;;7.60;;
24279;SDS011;12395;42.808;23.408;2022-12-18T00:08:50;12.75;;;7.68;;
24279;SDS011;12395;42.808;23.408;2022-12-18T00:11:18;15.38;;;8.30;;
24279;SDS011;12395;42.808;23.408;2022-12-18T00:13:45;13.85;;;7.85;;
24279;SDS011;12395;42.808;23.408;2022-12-18T00:16:16;14.52;;;8.90;;
24279;SDS011;12395;42.808;23.408;2022-12-18T00:18:46;13.65;;;8.35;;
24279;SDS011;12395;42.808;23.408;2022-12-18T00:21:13;14.43;;;8.88;;
24279;SDS011;12395;42.808;23.408;2022-12-18T00:23:40;15.70;;;8.87;;
24279;SDS011;12395;42.808;23.408;2022-12-18T00:26:08;16.63;;;10.13;;
24279;SDS011;12395;42.808;23.408;2022-12-18T00:28:36;14.32;;;8.77;;
24279;SDS011;12395;42.808;23.408;2022-12-18T00:31:06;15.18;;;8.82;;
24279;SDS011;12395;42.808;23.408;2022-12-18T00:33:34;15.27;;;9.27;;
24279;SDS011;12395;42.808;23.408;2022-12-18T00:36:11;15.88;;;9.88;;
24279;SDS011;12395;42.808;23.408;2022-12-18T00:38:38;14.20;;;9.00;;
24279;SDS011;12395;42.808;23.408;2022-12-18T00:41:04;15.15;;;8.93;;
24279;SDS011;12395;42.808;23.408;2022-12-18T00:43:30;15.83;;;9.20;;
24279;SDS011;12395;42.808;23.408;2022-12-18T00:45:56;14.88;;;9.55;;
24279;SDS011;12395;42.808;23.408;2022-12-18T00:48:21;15.98;;;9.25;;
24279;SDS011;12395;42.808;23.408;2022-12-18T00:50:47;16.40;;;8.82;;
24279;SDS011;12395;42.808;23.408;2022-12-18T00:53:14;18.15;;;9.80;;
24279;SDS011;12395;42.808;23.408;2022-12-18T00:55:39;16.33;;;9.35;;
24279;SDS011;12395;42.808;23.408;2022-12-18T00:58:05;17.27;;;8.60;;
24279;SDS011;12395;42.808;23.408;2022-12-18T01:00:31;15.27;;;9.00;;
24279;SDS011;12395;42.808;23.408;2022-12-18T01:02:56;15.93;;;8.82;;
24279;SDS011;12395;42.808;23.408;2022-12-18T01:05:21;20.00;;;10.45;;
24279;SDS011;12395;42.808;23.408;2022-12-18T01:07:47;17.63;;;10.23;;
24279;SDS011;12395;42.808;23.408;2022-12-18T01:10:12;20.13;;;11.45;;
24279;SDS011;12395;42.808;23.408;2022-12-18T01:12:38;18.20;;;11.02;;
24279;SDS011;12395;42.808;23.408;2022-12-18T01:15:05;14.85;;;8.77;;
24279;SDS011;12395;42.808;23.408;2022-12-18T01:17:33;15.35;;;8.85;;
24279;SDS011;12395;42.808;23.408;2022-12-18T01:19:58;16.60;;;9.20;;
24279;SDS011;12395;42.808;23.408;2022-12-18T01:22:24;14.98;;;9.27;;
24279;SDS011;12395;42.808;23.408;2022-12-18T01:24:49;14.75;;;8.60;;
24279;SDS011;12395;42.808;23.408;2022-12-18T01:27:15;14.80;;;8.77;;
24279;SDS011;12395;42.808;23.408;2022-12-18T01:29:40;20.88;;;11.85;;
24279;SDS011;12395;42.808;23.408;2022-12-18T01:32:06;16.15;;;8.77;;
24279;SDS011;12395;42.808;23.408;2022-12-18T01:34:31;15.05;;;8.38;;
24279;SDS011;12395;42.808;23.408;2022-12-18T01:36:57;16.45;;;8.48;;
24279;SDS011;12395;42.808;23.408;2022-12-18T01:39:22;16.27;;;9.07;;
24279;SDS011;12395;42.808;23.408;2022-12-18T01:41:48;14.70;;;8.85;;
24279;SDS011;12395;42.808;23.408;2022-12-18T01:49:58;15.30;;;9.02;;
24279;SDS011;12395;42.808;23.408;2022-12-18T01:52:26;15.63;;;9.35;;
24279;SDS011;12395;42.808;23.408;2022-12-18T01:54:54;14.90;;;9.70;;
24279;SDS011;12395;42.808;23.408;2022-12-18T01:57:21;17.27;;;9.60;;
24279;SDS011;12395;42.808;23.408;2022-12-18T01:59:50;17.02;;;9.25;;
24279;SDS011;12395;42.808;23.408;2022-12-18T02:02:18;17.05;;;9.50;;
24279;SDS011;12395;42.808;23.408;2022-12-18T02:04:45;18.27;;;9.50;;
24279;SDS011;12395;42.808;23.408;2022-12-18T02:07:18;14.73;;;8.70;;
24279;SDS011;12395;42.808;23.408;2022-12-18T02:15:46;14.80;;;9.52;;
24279;SDS011;12395;42.808;23.408;2022-12-18T02:18:24;15.95;;;9.05;;
24279;SDS011;12395;42.808;23.408;2022-12-18T02:20:55;16.92;;;9.40;;
24279;SDS011;12395;42.808;23.408;2022-12-18T02:26:32;16.58;;;9.63;;
24279;SDS011;12395;42.808;23.408;2022-12-18T02:29:12;14.85;;;9.02;;
24279;SDS011;12395;42.808;23.408;2022-12-18T02:31:45;15.57;;;9.52;;
24279;SDS011;12395;42.808;23.408;2022-12-18T02:34:24;16.23;;;9.60;;
24279;SDS011;12395;42.808;23.408;2022-12-18T02:36:58;15.52;;;8.98;;
24279;SDS011;12395;42.808;23.408;2022-12-18T02:39:27;16.63;;;9.48;;
24279;SDS011;12395;42.808;23.408;2022-12-18T02:41:54;16.80;;;8.77;;
24279;SDS011;12395;42.808;23.408;2022-12-18T02:44:20;15.48;;;9.05;;
24279;SDS011;12395;42.808;23.408;2022-12-18T02:46:49;16.05;;;8.88;;
24279;SDS011;12395;42.808;23.408;2022-12-18T02:52:45;15.00;;;9.27;;
24279;SDS011;12395;42.808;23.408;2022-12-18T02:57:49;13.80;;;8.88;;
24279;SDS011;12395;42.808;23.408;2022-12-18T03:00:19;14.43;;;8.43;;
24279;SDS011;12395;42.808;23.408;2022-12-18T03:03:07;14.63;;;8.40;;
24279;SDS011;12395;42.808;23.408;2022-12-18T03:05:44;14.88;;;8.75;;
24279;SDS011;12395;42.808;23.408;2022-12-18T03:08:17;15.88;;;9.55;;
24279;SDS011;12395;42.808;23.408;2022-12-18T03:11:08;15.23;;;9.50;;
24279;SDS011;12395;42.808;23.408;2022-12-18T03:13:37;14.88;;;8.93;;
24279;SDS011;12395;42.808;23.408;2022-12-18T03:16:04;15.32;;;9.30;;
24279;SDS011;12395;42.808;23.408;2022-12-18T03:21:05;16.65;;;9.52;;
24279;SDS011;12395;42.808;23.408;2022-12-18T03:23:34;16.20;;;9.18;;
24279;SDS011;12395;42.808;23.408;2022-12-18T03:26:09;15.75;;;8.80;;
24279;SDS011;12395;42.808;23.408;2022-12-18T03:28:37;15.02;;;8.77;;
24279;SDS011;12395;42.808;23.408;2022-12-18T03:31:07;14.65;;;9.15;;
24279;SDS011;12395;42.808;23.408;2022-12-18T03:36:12;14.23;;;8.27;;
24279;SDS011;12395;42.808;23.408;2022-12-18T03:38:38;17.75;;;9.40;;
24279;SDS011;12395;42.808;23.408;2022-12-18T03:43:52;15.55;;;9.93;;
24279;SDS011;12395;42.808;23.408;2022-12-18T03:46:27;15.35;;;9.27;;
24279;SDS011;12395;42.808;23.408;2022-12-18T03:49:14;15.40;;;9.23;;
24279;SDS011;12395;42.808;23.408;2022-12-18T03:52:29;14.82;;;8.60;;
24279;SDS011;12395;42.808;23.408;2022-12-18T03:54:53;15.48;;;9.60;;
24279;SDS011;12395;42.808;23.408;2022-12-18T03:57:22;15.52;;;9.75;;
24279;SDS011;12395;42.808;23.408;2022-12-18T03:59:52;17.23;;;9.90;;
24279;SDS011;12395;42.808;23.408;2022-12-18T04:02:22;15.52;;;9.38;;
24279;SDS011;12395;42.808;23.408;2022-12-18T04:04:48;14.88;;;8.73;;
24279;SDS011;12395;42.808;23.408;2022-12-18T04:07:18;15.13;;;9.32;;
24279;SDS011;12395;42.808;23.408;2022-12-18T04:09:46;16.80;;;9.88;;
24279;SDS011;12395;42.808;23.408;2022-12-18T04:12:13;15.20;;;9.15;;
24279;SDS011;12395;42.808;23.408;2022-12-18T04:14:39;14.73;;;9.00;;
24279;SDS011;12395;42.808;23.408;2022-12-18T04:17:04;17.10;;;9.35;;
24279;SDS011;12395;42.808;23.408;2022-12-18T04:19:30;16.65;;;9.57;;
24279;SDS011;12395;42.808;23.408;2022-12-18T04:21:55;15.25;;;9.25;;
24279;SDS011;12395;42.808;23.408;2022-12-18T04:24:21;18.65;;;9.90;;
24279;SDS011;12395;42.808;23.408;2022-12-18T04:26:46;19.83;;;10.55;;
24279;SDS011;12395;42.808;23.408;2022-12-18T04:29:12;16.25;;;10.52;;
24279;SDS011;12395;42.808;23.408;2022-12-18T04:31:37;19.25;;;10.98;;
24279;SDS011;12395;42.808;23.408;2022-12-18T04:34:03;19.30;;;10.55;;
24279;SDS011;12395;42.808;23.408;2022-12-18T04:36:28;18.77;;;10.75;;
24279;SDS011;12395;42.808;23.408;2022-12-18T04:38:54;18.60;;;10.73;;
24279;SDS011;12395;42.808;23.408;2022-12-18T04:41:19;16.95;;;10.38;;
24279;SDS011;12395;42.808;23.408;2022-12-18T04:43:45;20.05;;;10.65;;
24279;SDS011;12395;42.808;23.408;2022-12-18T04:46:10;19.95;;;10.88;;
24279;SDS011;12395;42.808;23.408;2022-12-18T04:48:36;18.98;;;11.50;;
24279;SDS011;12395;42.808;23.408;2022-12-18T04:51:02;21.08;;;10.57;;
24279;SDS011;12395;42.808;23.408;2022-12-18T04:53:29;21.57;;;11.43;;
24279;SDS011;12395;42.808;23.408;2022-12-18T04:56:08;21.20;;;11.30;;
24279;SDS011;12395;42.808;23.408;2022-12-18T04:58:38;18.25;;;11.50;;
24279;SDS011;12395;42.808;23.408;2022-12-18T05:01:05;20.13;;;12.40;;
24279;SDS011;12395;42.808;23.408;2022-12-18T05:03:32;21.42;;;12.50;;
24279;SDS011;12395;42.808;23.408;2022-12-18T05:05:58;21.50;;;12.27;;
24279;SDS011;12395;42.808;23.408;2022-12-18T05:08:23;23.08;;;11.90;;
24279;SDS011;12395;42.808;23.408;2022-12-18T05:10:49;20.77;;;11.15;;
24279;SDS011;12395;42.808;23.408;2022-12-18T05:13:14;19.60;;;11.07;;
24279;SDS011;12395;42.808;23.408;2022-12-18T05:15:40;20.95;;;11.18;;
24279;SDS011;12395;42.808;23.408;2022-12-18T05:18:07;21.50;;;11.65;;
24279;SDS011;12395;42.808;23.408;2022-12-18T05:20:32;21.60;;;11.88;;
24279;SDS011;12395;42.808;23.408;2022-12-18T05:22:58;21.77;;;12.38;;
24279;SDS011;12395;42.808;23.408;2022-12-18T05:25:23;24.08;;;12.02;;
24279;SDS011;12395;42.808;23.408;2022-12-18T05:27:49;22.52;;;12.13;;
24279;SDS011;12395;42.808;23.408;2022-12-18T05:30:15;23.38;;;12.75;;
24279;SDS011;12395;42.808;23.408;2022-12-18T05:32:41;22.00;;;12.73;;
24279;SDS011;12395;42.808;23.408;2022-12-18T05:35:08;23.00;;;12.10;;
24279;SDS011;12395;42.808;23.408;2022-12-18T05:37:34;22.95;;;12.93;;
24279;SDS011;12395;42.808;23.408;2022-12-18T05:40:00;24.58;;;12.88;;
24279;SDS011;12395;42.808;23.408;2022-12-18T05:42:26;20.67;;;11.75;;
24279;SDS011;12395;42.808;23.408;2022-12-18T05:44:52;63.30;;;30.65;;
24279;SDS011;12395;42.808;23.408;2022-12-18T05:47:17;28.58;;;15.88;;
24279;SDS011;12395;42.808;23.408;2022-12-18T05:49:43;28.25;;;14.43;;
24279;SDS011;12395;42.808;23.408;2022-12-18T05:52:08;22.88;;;12.43;;
24279;SDS011;12395;42.808;23.408;2022-12-18T05:54:34;23.65;;;12.90;;
24279;SDS011;12395;42.808;23.408;2022-12-18T05:56:59;23.60;;;12.25;;
24279;SDS011;12395;42.808;23.408;2022-12-18T05:59:24;22.90;;;12.00;;
24279;SDS011;12395;42.808;23.408;2022-12-18T06:01:50;24.75;;;12.75;;
24279;SDS011;12395;42.808;23.408;2022-12-18T06:04:16;22.13;;;13.18;;
24279;SDS011;12395;42.808;23.408;2022-12-18T06:06:42;21.73;;;12.02;;
24279;SDS011;12395;42.808;23.408;2022-12-18T06:09:07;22.02;;;13.02;;
24279;SDS011;12395;42.808;23.408;2022-12-18T06:11:35;24.10;;;13.10;;
24279;SDS011;12395;42.808;23.408;2022-12-18T06:14:01;25.27;;;14.13;;
24279;SDS011;12395;42.808;23.408;2022-12-18T06:16:28;25.05;;;14.73;;
24279;SDS011;12395;42.808;23.408;2022-12-18T06:18:57;29.08;;;16.88;;
24279;SDS011;12395;42.808;23.408;2022-12-18T06:21:24;23.50;;;13.45;;
24279;SDS011;12395;42.808;23.408;2022-12-18T06:23:49;23.02;;;13.55;;
24279;SDS011;12395;42.808;23.408;2022-12-18T06:26:14;21.52;;;12.93;;
24279;SDS011;12395;42.808;23.408;2022-12-18T06:28:40;22.33;;;13.48;;
24279;SDS011;12395;42.808;23.408;2022-12-18T06:31:06;22.10;;;13.10;;
24279;SDS011;12395;42.808;23.408;2022-12-18T06:33:32;23.88;;;13.15;;
24279;SDS011;12395;42.808;23.408;2022-12-18T06:36:16;22.00;;;12.23;;
24279;SDS011;12395;42.808;23.408;2022-12-18T06:38:42;22.65;;;12.32;;
24279;SDS011;12395;42.808;23.408;2022-12-18T06:41:09;22.60;;;13.10;;
24279;SDS011;12395;42.808;23.408;2022-12-18T06:43:39;21.25;;;12.68;;
24279;SDS011;12395;42.808;23.408;2022-12-18T06:46:05;22.48;;;12.60;;
24279;SDS011;12395;42.808;23.408;2022-12-18T06:48:31;21.50;;;12.70;;
24279;SDS011;12395;42.808;23.408;2022-12-18T06:50:57;22.83;;;12.85;;
24279;SDS011;12395;42.808;23.408;2022-12-18T06:53:22;21.65;;;12.93;;
24279;SDS011;12395;42.808;23.408;2022-12-18T06:55:48;22.45;;;13.18;;
24279;SDS011;12395;42.808;23.408;2022-12-18T06:58:14;21.35;;;12.75;;
24279;SDS011;12395;42.808;23.408;2022-12-18T07:00:40;28.55;;;15.77;;
24279;SDS011;12395;42.808;23.408;2022-12-18T07:03:06;24.70;;;14.25;;
24279;SDS011;12395;42.808;23.408;2022-12-18T07:05:31;23.55;;;13.48;;
24279;SDS011;12395;42.808;23.408;2022-12-18T07:07:57;25.08;;;12.65;;
24279;SDS011;12395;42.808;23.408;2022-12-18T07:10:22;23.30;;;13.95;;
24279;SDS011;12395;42.808;23.408;2022-12-18T07:12:48;25.88;;;14.43;;
24279;SDS011;12395;42.808;23.408;2022-12-18T07:15:13;27.02;;;15.30;;
24279;SDS011;12395;42.808;23.408;2022-12-18T07:17:38;49.47;;;23.17;;
24279;SDS011;12395;42.808;23.408;2022-12-18T07:20:04;27.30;;;14.77;;
24279;SDS011;12395;42.808;23.408;2022-12-18T07:22:30;26.20;;;14.38;;
24279;SDS011;12395;42.808;23.408;2022-12-18T07:24:55;26.77;;;14.25;;
24279;SDS011;12395;42.808;23.408;2022-12-18T07:27:21;31.20;;;17.88;;
24279;SDS011;12395;42.808;23.408;2022-12-18T07:29:46;28.58;;;15.40;;
24279;SDS011;12395;42.808;23.408;2022-12-18T07:32:12;30.05;;;17.50;;
24279;SDS011;12395;42.808;23.408;2022-12-18T07:34:37;27.63;;;15.95;;
24279;SDS011;12395;42.808;23.408;2022-12-18T07:37:02;29.77;;;16.17;;
24279;SDS011;12395;42.808;23.408;2022-12-18T07:39:28;31.73;;;16.30;;
24279;SDS011;12395;42.808;23.408;2022-12-18T07:41:53;27.60;;;15.15;;
24279;SDS011;12395;42.808;23.408;2022-12-18T07:44:37;29.58;;;16.35;;
24279;SDS011;12395;42.808;23.408;2022-12-18T07:47:03;28.23;;;15.55;;
24279;SDS011;12395;42.808;23.408;2022-12-18T07:49:28;29.55;;;16.15;;
24279;SDS011;12395;42.808;23.408;2022-12-18T07:51:57;31.08;;;15.95;;
24279;SDS011;12395;42.808;23.408;2022-12-18T07:54:23;30.83;;;17.88;;
24279;SDS011;12395;42.808;23.408;2022-12-18T07:56:48;43.97;;;22.38;;
24279;SDS011;12395;42.808;23.408;2022-12-18T07:59:14;48.53;;;27.00;;
24279;SDS011;12395;42.808;23.408;2022-12-18T08:01:39;30.90;;;17.48;;
24279;SDS011;12395;42.808;23.408;2022-12-18T08:04:05;31.73;;;18.92;;
24279;SDS011;12395;42.808;23.408;2022-12-18T08:06:30;32.70;;;18.13;;
24279;SDS011;12395;42.808;23.408;2022-12-18T08:08:56;29.10;;;17.73;;
24279;SDS011;12395;42.808;23.408;2022-12-18T08:11:22;29.92;;;18.20;;
24279;SDS011;12395;42.808;23.408;2022-12-18T08:16:15;31.33;;;18.55;;
24279;SDS011;12395;42.808;23.408;2022-12-18T08:18:41;28.98;;;16.08;;
24279;SDS011;12395;42.808;23.408;2022-12-18T08:21:07;32.25;;;15.65;;
24279;SDS011;12395;42.808;23.408;2022-12-18T08:23:43;27.73;;;14.43;;
24279;SDS011;12395;42.808;23.408;2022-12-18T08:26:12;30.38;;;17.55;;
24279;SDS011;12395;42.808;23.408;2022-12-18T08:28:38;28.48;;;15.07;;
24279;SDS011;12395;42.808;23.408;2022-12-18T08:31:05;34.13;;;16.58;;
24279;SDS011;12395;42.808;23.408;2022-12-18T08:33:31;29.73;;;16.23;;
24279;SDS011;12395;42.808;23.408;2022-12-18T08:35:57;31.30;;;17.70;;
24279;SDS011;12395;42.808;23.408;2022-12-18T08:38:24;31.23;;;16.15;;
24279;SDS011;12395;42.808;23.408;2022-12-18T08:40:49;28.10;;;16.17;;
24279;SDS011;12395;42.808;23.408;2022-12-18T08:43:14;32.33;;;16.65;;
24279;SDS011;12395;42.808;23.408;2022-12-18T08:45:58;29.60;;;15.05;;
24279;SDS011;12395;42.808;23.408;2022-12-18T08:48:24;28.92;;;15.73;;
24279;SDS011;12395;42.808;23.408;2022-12-18T08:50:56;32.85;;;18.60;;
24279;SDS011;12395;42.808;23.408;2022-12-18T08:53:24;29.85;;;15.15;;
24279;SDS011;12395;42.808;23.408;2022-12-18T08:55:50;31.70;;;16.58;;
24279;SDS011;12395;42.808;23.408;2022-12-18T08:58:15;33.17;;;17.52;;
24279;SDS011;12395;42.808;23.408;2022-12-18T09:00:41;30.60;;;16.65;;
24279;SDS011;12395;42.808;23.408;2022-12-18T09:03:10;30.17;;;15.85;;
24279;SDS011;12395;42.808;23.408;2022-12-18T09:05:37;34.42;;;19.00;;
24279;SDS011;12395;42.808;23.408;2022-12-18T09:08:02;29.73;;;16.92;;
24279;SDS011;12395;42.808;23.408;2022-12-18T09:10:27;28.17;;;14.80;;
24279;SDS011;12395;42.808;23.408;2022-12-18T09:12:53;26.92;;;14.98;;
24279;SDS011;12395;42.808;23.408;2022-12-18T09:15:18;26.30;;;14.07;;
24279;SDS011;12395;42.808;23.408;2022-12-18T09:17:44;28.85;;;15.73;;
24279;SDS011;12395;42.808;23.408;2022-12-18T09:20:09;29.20;;;14.88;;
24279;SDS011;12395;42.808;23.408;2022-12-18T09:22:35;30.38;;;16.33;;
24279;SDS011;12395;42.808;23.408;2022-12-18T09:25:00;40.45;;;25.27;;
24279;SDS011;12395;42.808;23.408;2022-12-18T09:27:25;28.20;;;15.48;;
24279;SDS011;12395;42.808;23.408;2022-12-18T09:29:51;31.52;;;16.38;;
24279;SDS011;12395;42.808;23.408;2022-12-18T09:32:16;33.15;;;20.27;;
24279;SDS011;12395;42.808;23.408;2022-12-18T09:34:41;30.95;;;17.30;;
24279;SDS011;12395;42.808;23.408;2022-12-18T09:37:07;30.83;;;18.65;;
24279;SDS011;12395;42.808;23.408;2022-12-18T09:39:32;50.03;;;30.08;;
24279;SDS011;12395;42.808;23.408;2022-12-18T09:42:01;33.88;;;20.25;;
24279;SDS011;12395;42.808;23.408;2022-12-18T09:44:28;35.17;;;20.15;;
24279;SDS011;12395;42.808;23.408;2022-12-18T09:47:14;29.55;;;17.63;;
24279;SDS011;12395;42.808;23.408;2022-12-18T09:49:44;34.85;;;19.63;;
24279;SDS011;12395;42.808;23.408;2022-12-18T09:54:51;34.60;;;17.45;;
24279;SDS011;12395;42.808;23.408;2022-12-18T09:57:24;31.92;;;17.35;;
24279;SDS011;12395;42.808;23.408;2022-12-18T09:59:58;29.48;;;17.50;;
24279;SDS011;12395;42.808;23.408;2022-12-18T10:02:29;37.47;;;21.02;;
24279;SDS011;12395;42.808;23.408;2022-12-18T10:05:01;46.80;;;23.88;;
24279;SDS011;12395;42.808;23.408;2022-12-18T10:07:45;34.00;;;19.17;;
24279;SDS011;12395;42.808;23.408;2022-12-18T10:13:01;35.15;;;18.83;;
24279;SDS011;12395;42.808;23.408;2022-12-18T10:15:36;34.00;;;18.95;;
24279;SDS011;12395;42.808;23.408;2022-12-18T10:18:18;42.35;;;21.95;;
24279;SDS011;12395;42.808;23.408;2022-12-18T10:20:47;41.08;;;22.92;;
24279;SDS011;12395;42.808;23.408;2022-12-18T10:25:59;35.22;;;20.05;;
24279;SDS011;12395;42.808;23.408;2022-12-18T10:28:27;43.85;;;24.23;;
24279;SDS011;12395;42.808;23.408;2022-12-18T10:30:55;32.55;;;19.10;;
24279;SDS011;12395;42.808;23.408;2022-12-18T10:33:22;35.67;;;20.98;;
24279;SDS011;12395;42.808;23.408;2022-12-18T10:35:49;38.72;;;21.00;;
24279;SDS011;12395;42.808;23.408;2022-12-18T10:43:31;36.85;;;20.83;;
24279;SDS011;12395;42.808;23.408;2022-12-18T10:48:50;36.58;;;20.95;;
24279;SDS011;12395;42.808;23.408;2022-12-18T10:51:32;32.35;;;17.88;;
24279;SDS011;12395;42.808;23.408;2022-12-18T10:54:02;29.15;;;16.52;;
24279;SDS011;12395;42.808;23.408;2022-12-18T10:56:32;31.95;;;16.95;;
24279;SDS011;12395;42.808;23.408;2022-12-18T10:59:01;32.30;;;17.35;;
24279;SDS011;12395;42.808;23.408;2022-12-18T11:01:47;31.35;;;17.95;;
24279;SDS011;12395;42.808;23.408;2022-12-18T11:07:06;23.73;;;13.40;;
24279;SDS011;12395;42.808;23.408;2022-12-18T11:09:33;23.45;;;13.48;;
24279;SDS011;12395;42.808;23.408;2022-12-18T11:12:01;28.13;;;15.40;;
24279;SDS011;12395;42.808;23.408;2022-12-18T11:14:29;27.30;;;15.48;;
24279;SDS011;12395;42.808;23.408;2022-12-18T11:16:59;23.30;;;12.73;;
24279;SDS011;12395;42.808;23.408;2022-12-18T11:22:02;39.40;;;14.45;;
24279;SDS011;12395;42.808;23.408;2022-12-18T11:24:49;22.38;;;12.63;;
24279;SDS011;12395;42.808;23.408;2022-12-18T11:27:19;19.95;;;11.30;;
24279;SDS011;12395;42.808;23.408;2022-12-18T11:29:45;18.98;;;11.13;;
24279;SDS011;12395;42.808;23.408;2022-12-18T11:34:39;33.00;;;17.45;;
24279;SDS011;12395;42.808;23.408;2022-12-18T11:37:10;36.10;;;19.98;;
24279;SDS011;12395;42.808;23.408;2022-12-18T11:44:49;34.25;;;20.55;;
24279;SDS011;12395;42.808;23.408;2022-12-18T11:50:02;37.53;;;21.73;;
24279;SDS011;12395;42.808;23.408;2022-12-18T11:52:39;35.67;;;22.15;;
24279;SDS011;12395;42.808;23.408;2022-12-18T11:55:15;30.10;;;17.80;;
24279;SDS011;12395;42.808;23.408;2022-12-18T12:00:22;35.35;;;20.85;;
24279;SDS011;12395;42.808;23.408;2022-12-18T12:05:32;35.23;;;19.70;;
24279;SDS011;12395;42.808;23.408;2022-12-18T12:08:28;38.00;;;20.17;;
24279;SDS011;12395;42.808;23.408;2022-12-18T12:16:34;38.90;;;21.33;;
24279;SDS011;12395;42.808;23.408;2022-12-18T12:25:19;36.67;;;20.50;;
24279;SDS011;12395;42.808;23.408;2022-12-18T12:38:55;30.35;;;18.45;;
24279;SDS011;12395;42.808;23.408;2022-12-18T12:41:25;35.20;;;19.02;;
24279;SDS011;12395;42.808;23.408;2022-12-18T12:44:15;32.83;;;18.08;;
24279;SDS011;12395;42.808;23.408;2022-12-18T12:46:45;36.75;;;20.52;;
24279;SDS011;12395;42.808;23.408;2022-12-18T12:49:17;36.13;;;20.88;;
24279;SDS011;12395;42.808;23.408;2022-12-18T12:51:49;36.92;;;20.52;;
24279;SDS011;12395;42.808;23.408;2022-12-18T12:57:19;30.95;;;17.15;;
24279;SDS011;12395;42.808;23.408;2022-12-18T13:02:20;34.65;;;19.42;;
24279;SDS011;12395;42.808;23.408;2022-12-18T13:04:58;31.48;;;17.27;;
24279;SDS011;12395;42.808;23.408;2022-12-18T13:18:32;27.02;;;15.85;;
24279;SDS011;12395;42.808;23.408;2022-12-18T13:25:52;42.92;;;25.05;;
24279;SDS011;12395;42.808;23.408;2022-12-18T13:28:22;26.92;;;14.95;;
24279;SDS011;12395;42.808;23.408;2022-12-18T13:31:08;32.35;;;18.15;;
24279;SDS011;12395;42.808;23.408;2022-12-18T13:33:41;36.58;;;19.00;;
24279;SDS011;12395;42.808;23.408;2022-12-18T13:36:28;79.13;;;39.33;;
24279;SDS011;12395;42.808;23.408;2022-12-18T13:39:40;29.83;;;16.23;;
24279;SDS011;12395;42.808;23.408;2022-12-18T13:41:44;25.73;;;14.85;;
24279;SDS011;12395;42.808;23.408;2022-12-18T13:46:46;25.90;;;15.75;;
24279;SDS011;12395;42.808;23.408;2022-12-18T13:51:41;33.03;;;18.08;;
24279;SDS011;12395;42.808;23.408;2022-12-18T13:56:49;29.85;;;16.83;;
24279;SDS011;12395;42.808;23.408;2022-12-18T14:01:44;35.53;;;19.85;;
24279;SDS011;12395;42.808;23.408;2022-12-18T14:04:20;29.55;;;17.60;;
24279;SDS011;12395;42.808;23.408;2022-12-18T14:06:49;27.98;;;15.82;;
24279;SDS011;12395;42.808;23.408;2022-12-18T14:09:20;28.80;;;16.10;;
24279;SDS011;12395;42.808;23.408;2022-12-18T14:11:56;29.50;;;17.20;;
24279;SDS011;12395;42.808;23.408;2022-12-18T14:14:46;27.33;;;15.60;;
24279;SDS011;12395;42.808;23.408;2022-12-18T14:17:15;36.65;;;21.15;;
24279;SDS011;12395;42.808;23.408;2022-12-18T14:19:42;37.40;;;19.75;;
24279;SDS011;12395;42.808;23.408;2022-12-18T14:22:15;35.00;;;19.75;;
24279;SDS011;12395;42.808;23.408;2022-12-18T14:24:43;33.90;;;17.73;;
24279;SDS011;12395;42.808;23.408;2022-12-18T14:27:25;37.75;;;20.55;;
24279;SDS011;12395;42.808;23.408;2022-12-18T14:29:50;37.75;;;20.13;;
24279;SDS011;12395;42.808;23.408;2022-12-18T14:32:17;32.30;;;17.35;;
24279;SDS011;12395;42.808;23.408;2022-12-18T14:34:48;31.08;;;16.13;;
24279;SDS011;12395;42.808;23.408;2022-12-18T14:37:16;27.33;;;15.00;;
24279;SDS011;12395;42.808;23.408;2022-12-18T14:42:25;29.52;;;15.93;;
24279;SDS011;12395;42.808;23.408;2022-12-18T14:45:31;27.90;;;14.93;;
24279;SDS011;12395;42.808;23.408;2022-12-18T14:47:56;32.63;;;16.30;;
24279;SDS011;12395;42.808;23.408;2022-12-18T14:50:22;34.63;;;19.02;;
24279;SDS011;12395;42.808;23.408;2022-12-18T14:52:47;33.35;;;19.02;;
24279;SDS011;12395;42.808;23.408;2022-12-18T14:55:14;28.92;;;16.77;;
24279;SDS011;12395;42.808;23.408;2022-12-18T14:57:41;29.77;;;15.50;;
24279;SDS011;12395;42.808;23.408;2022-12-18T15:00:16;29.52;;;16.05;;
24279;SDS011;12395;42.808;23.408;2022-12-18T15:02:51;31.08;;;16.17;;
24279;SDS011;12395;42.808;23.408;2022-12-18T15:05:26;29.80;;;15.57;;
24279;SDS011;12395;42.808;23.408;2022-12-18T15:07:54;33.40;;;17.67;;
24279;SDS011;12395;42.808;23.408;2022-12-18T15:10:22;31.27;;;18.65;;
24279;SDS011;12395;42.808;23.408;2022-12-18T15:20:32;29.88;;;15.30;;
24279;SDS011;12395;42.808;23.408;2022-12-18T15:23:04;32.28;;;16.63;;
24279;SDS011;12395;42.808;23.408;2022-12-18T15:25:37;30.83;;;16.20;;
24279;SDS011;12395;42.808;23.408;2022-12-18T15:28:03;30.38;;;15.07;;
24279;SDS011;12395;42.808;23.408;2022-12-18T15:30:40;30.88;;;15.98;;
24279;SDS011;12395;42.808;23.408;2022-12-18T15:33:29;29.55;;;14.88;;
24279;SDS011;12395;42.808;23.408;2022-12-18T15:36:01;29.17;;;15.02;;
24279;SDS011;12395;42.808;23.408;2022-12-18T15:38:34;29.45;;;15.30;;
24279;SDS011;12395;42.808;23.408;2022-12-18T15:41:00;28.65;;;14.80;;
24279;SDS011;12395;42.808;23.408;2022-12-18T15:43:27;28.83;;;15.45;;
24279;SDS011;12395;42.808;23.408;2022-12-18T15:46:22;30.65;;;16.00;;
24279;SDS011;12395;42.808;23.408;2022-12-18T15:53:54;32.80;;;17.10;;
24279;SDS011;12395;42.808;23.408;2022-12-18T15:56:21;32.83;;;16.67;;
24279;SDS011;12395;42.808;23.408;2022-12-18T15:59:16;32.15;;;16.27;;
24279;SDS011;12395;42.808;23.408;2022-12-18T16:01:48;33.78;;;16.73;;
24279;SDS011;12395;42.808;23.408;2022-12-18T16:04:15;32.65;;;17.35;;
24279;SDS011;12395;42.808;23.408;2022-12-18T16:06:42;29.38;;;16.65;;
24279;SDS011;12395;42.808;23.408;2022-12-18T16:09:08;35.15;;;19.65;;
24279;SDS011;12395;42.808;23.408;2022-12-18T16:11:34;33.38;;;17.73;;
24279;SDS011;12395;42.808;23.408;2022-12-18T16:14:20;31.20;;;16.27;;
24279;SDS011;12395;42.808;23.408;2022-12-18T16:16:49;31.35;;;16.48;;
24279;SDS011;12395;42.808;23.408;2022-12-18T16:19:16;34.45;;;17.75;;
24279;SDS011;12395;42.808;23.408;2022-12-18T16:21:43;34.22;;;18.45;;
24279;SDS011;12395;42.808;23.408;2022-12-18T16:24:15;34.70;;;19.70;;
24279;SDS011;12395;42.808;23.408;2022-12-18T16:26:43;42.08;;;21.05;;
24279;SDS011;12395;42.808;23.408;2022-12-18T16:29:09;85.85;;;43.78;;
24279;SDS011;12395;42.808;23.408;2022-12-18T16:31:35;79.57;;;41.80;;
24279;SDS011;12395;42.808;23.408;2022-12-18T16:37:14;60.42;;;30.58;;
24279;SDS011;12395;42.808;23.408;2022-12-18T16:39:41;51.13;;;25.95;;
24279;SDS011;12395;42.808;23.408;2022-12-18T16:42:11;66.47;;;32.08;;
24279;SDS011;12395;42.808;23.408;2022-12-18T16:44:39;44.38;;;21.70;;